Chatham Center, New York
Current Conditions -  °F | °C
As of 3:54 PM on Saturday 25 Oct 2014 (Local Time) from KPSF Reporting Station
Clear Clear  
Wind Chill: 58°   Ceiling: Unl
Heat Index: 58°   Visibility: 10mi
Dew Point: 42°   Wind: 16mph
Humidity: 56%   Direction: 260°W
Pressure: 29.62"   Gusts: NA
Location:  42.429°N, 73.6523°W
Report Text: KPSF 251954Z AUTO 26014KT 10SM CLR 14/06 A2962 RMK AO2 SLP023 T01440056
Loading
Personal Weather Stations






























Interactive Weather Map
Tropical Storm Tracking
New forecast layout! Learn more

10-Day Weather Forecast

Advertisements
Track Severe Weather on mobile